Time;durP1;ratioP1;P1;durP2;ratioP2;P2;SDS_P1;SDS_P2;PMS_P1;PMS_P2;Temp;Humidity;BMP_temperature;BMP_pressure;BME280_temperature;BME280_humidity;BME280_pressure;Samples;Min_cycle;Max_cycle;Signal;HPM_P1;HPM_P2
2022/07/15 00:02:11;;;;;;;3.67;2.30;;;;;;;;;;4995014;28;20225;-74
2022/07/15 00:04:40;;;;;;;4.70;2.10;;;;;;;;;;4994668;28;20201;-74
2022/07/15 00:07:09;;;;;;;3.80;2.20;;;;;;;;;;4995127;28;20236;-74
2022/07/15 00:12:23;;;;;;;3.70;2.30;;;;;;;;;;4995467;28;20251;-74
2022/07/15 00:14:51;;;;;;;3.90;2.40;;;;;;;;;;5000032;28;20211;-75
2022/07/15 00:17:21;;;;;;;5.00;2.20;;;;;;;;;;5014823;28;20251;-73
2022/07/15 00:19:49;;;;;;;4.50;2.47;;;;;;;;;;4999051;28;20201;-74
2022/07/15 00:22:18;;;;;;;4.50;2.17;;;;;;;;;;4994637;28;20233;-74
2022/07/15 00:24:46;;;;;;;7.43;2.43;;;;;;;;;;4994606;28;20232;-74
2022/07/15 00:27:15;;;;;;;5.33;2.43;;;;;;;;;;4994751;28;20280;-74
2022/07/15 00:29:43;;;;;;;9.43;2.43;;;;;;;;;;4994506;28;20721;-74
2022/07/15 00:32:12;;;;;;;5.97;2.67;;;;;;;;;;4994537;28;20205;-74
2022/07/15 00:34:42;;;;;;;3.90;2.03;;;;;;;;;;4994619;28;20232;-75
2022/07/15 00:37:11;;;;;;;6.53;2.50;;;;;;;;;;4994033;28;20237;-74
2022/07/15 00:39:39;;;;;;;6.57;2.40;;;;;;;;;;4994868;28;20287;-74
2022/07/15 00:42:08;;;;;;;4.13;2.33;;;;;;;;;;4995117;28;20685;-74
2022/07/15 00:44:36;;;;;;;5.07;2.63;;;;;;;;;;4994162;28;20698;-74
2022/07/15 00:47:05;;;;;;;4.67;2.30;;;;;;;;;;4994018;28;20570;-74
2022/07/15 00:49:33;;;;;;;4.40;2.53;;;;;;;;;;4993942;28;20216;-74
2022/07/15 00:52:05;;;;;;;5.43;3.00;;;;;;;;;;4994499;28;20626;-74
2022/07/15 00:54:34;;;;;;;5.50;2.77;;;;;;;;;;4994506;28;20548;-74
2022/07/15 00:57:04;;;;;;;4.50;2.90;;;;;;;;;;4994314;28;20284;-74
2022/07/15 00:59:34;;;;;;;5.83;2.60;;;;;;;;;;4995233;28;20204;-74
2022/07/15 01:02:03;;;;;;;8.67;2.47;;;;;;;;;;4993601;28;20216;-74
2022/07/15 01:04:34;;;;;;;5.93;2.37;;;;;;;;;;4994127;28;20308;-74
2022/07/15 01:07:04;;;;;;;4.27;2.20;;;;;;;;;;4993987;28;20713;-73
2022/07/15 01:09:33;;;;;;;6.20;3.10;;;;;;;;;;4994199;28;20228;-73
2022/07/15 01:12:01;;;;;;;6.20;2.83;;;;;;;;;;4994254;28;20201;-74
2022/07/15 01:14:29;;;;;;;6.07;2.40;;;;;;;;;;4994017;28;20216;-75
2022/07/15 01:16:58;;;;;;;4.97;2.70;;;;;;;;;;4997897;28;20232;-74
2022/07/15 01:19:26;;;;;;;6.40;2.90;;;;;;;;;;4993840;28;20275;-74
2022/07/15 01:21:57;;;;;;;5.87;2.50;;;;;;;;;;4993803;28;20232;-73
2022/07/15 01:24:26;;;;;;;6.67;2.70;;;;;;;;;;4994181;28;20891;-74
2022/07/15 01:26:54;;;;;;;6.40;2.50;;;;;;;;;;4989545;28;20232;-74
2022/07/15 01:29:22;;;;;;;4.47;2.50;;;;;;;;;;4993717;28;20208;-74
2022/07/15 01:31:51;;;;;;;6.50;2.50;;;;;;;;;;4993627;28;20705;-74
2022/07/15 01:34:20;;;;;;;5.07;2.87;;;;;;;;;;4993628;28;20209;-74
2022/07/15 01:36:48;;;;;;;7.87;2.87;;;;;;;;;;4993392;28;20645;-73
2022/07/15 01:39:18;;;;;;;4.63;3.03;;;;;;;;;;4993702;28;20667;-74
2022/07/15 01:42:05;;;;;;;5.33;2.93;;;;;;;;;;4993875;28;20205;-73
2022/07/15 01:44:33;;;;;;;5.03;3.00;;;;;;;;;;4993587;28;20224;-73
2022/07/15 01:47:01;;;;;;;5.53;2.83;;;;;;;;;;4993435;28;20225;-74
2022/07/15 01:49:31;;;;;;;8.23;2.97;;;;;;;;;;4996721;28;20205;-73
2022/07/15 01:52:01;;;;;;;6.63;2.90;;;;;;;;;;4997569;28;20221;-73
2022/07/15 01:54:32;;;;;;;5.90;2.90;;;;;;;;;;4997581;28;20260;-74
2022/07/15 01:57:00;;;;;;;6.03;2.70;;;;;;;;;;4997365;28;20224;-74
2022/07/15 01:59:29;;;;;;;7.80;3.27;;;;;;;;;;4997174;28;20205;-73
2022/07/15 02:01:58;;;;;;;4.10;2.80;;;;;;;;;;4997561;28;20213;-73
2022/07/15 02:04:27;;;;;;;5.63;3.10;;;;;;;;;;4997331;28;20233;-73
2022/07/15 02:06:55;;;;;;;10.63;3.50;;;;;;;;;;4980270;28;20253;-74
2022/07/15 02:09:24;;;;;;;9.63;3.40;;;;;;;;;;4996989;28;20211;-74
2022/07/15 02:11:54;;;;;;;8.80;3.07;;;;;;;;;;4997427;28;20205;-74
2022/07/15 02:14:22;;;;;;;6.47;3.00;;;;;;;;;;4984569;28;20209;-74
2022/07/15 02:16:51;;;;;;;4.00;2.70;;;;;;;;;;4977629;28;20233;-74
2022/07/15 02:19:19;;;;;;;5.97;2.97;;;;;;;;;;4977916;28;20210;-74
2022/07/15 02:21:48;;;;;;;4.30;2.90;;;;;;;;;;4982275;28;20201;-74
2022/07/15 02:24:19;;;;;;;7.10;3.50;;;;;;;;;;4996857;28;20229;-74
2022/07/15 02:26:48;;;;;;;6.67;3.23;;;;;;;;;;4996782;28;20252;-74
2022/07/15 02:29:18;;;;;;;5.67;3.43;;;;;;;;;;4977727;28;20205;-74
2022/07/15 02:31:47;;;;;;;7.20;3.37;;;;;;;;;;4977392;28;20260;-74
2022/07/15 02:34:15;;;;;;;8.50;3.50;;;;;;;;;;4979331;28;20202;-74
2022/07/15 02:36:44;;;;;;;5.43;3.47;;;;;;;;;;4996135;28;20229;-73
2022/07/15 02:39:12;;;;;;;9.37;3.40;;;;;;;;;;4996566;28;20209;-74
2022/07/15 02:41:41;;;;;;;4.90;3.53;;;;;;;;;;4996226;28;20208;-74
2022/07/15 02:44:09;;;;;;;4.43;3.40;;;;;;;;;;4996771;28;20221;-74
2022/07/15 02:46:39;;;;;;;5.87;3.13;;;;;;;;;;4976982;28;20236;-74
2022/07/15 02:49:09;;;;;;;9.33;3.57;;;;;;;;;;4989868;28;20215;-74
2022/07/15 02:51:37;;;;;;;5.90;3.27;;;;;;;;;;4996762;28;20207;-74
2022/07/15 02:54:06;;;;;;;6.97;3.20;;;;;;;;;;4996325;28;20264;-73
2022/07/15 02:56:34;;;;;;;5.27;3.13;;;;;;;;;;4996359;28;20618;-74
2022/07/15 02:59:03;;;;;;;9.53;3.50;;;;;;;;;;4996739;28;20209;-74
2022/07/15 03:01:31;;;;;;;7.73;3.40;;;;;;;;;;4976031;28;20214;-74
2022/07/15 03:04:01;;;;;;;7.17;3.60;;;;;;;;;;4996053;28;20216;-74
2022/07/15 03:06:30;;;;;;;9.77;4.00;;;;;;;;;;4976869;28;20703;-74
2022/07/15 03:08:58;;;;;;;6.43;3.23;;;;;;;;;;4995930;28;20220;-74
2022/07/15 03:11:27;;;;;;;6.03;3.43;;;;;;;;;;4992910;28;20227;-74
2022/07/15 03:13:55;;;;;;;6.43;2.97;;;;;;;;;;4996288;28;20215;-73
2022/07/15 03:16:23;;;;;;;8.40;3.10;;;;;;;;;;4995737;28;20267;-74
2022/07/15 03:18:55;;;;;;;7.60;2.77;;;;;;;;;;4996227;28;20597;-74
2022/07/15 03:21:25;;;;;;;9.83;3.20;;;;;;;;;;4978816;28;20209;-74
2022/07/15 03:23:54;;;;;;;5.30;2.77;;;;;;;;;;4996553;28;20209;-74
2022/07/15 03:26:22;;;;;;;4.30;2.47;;;;;;;;;;4996035;28;20279;-73
2022/07/15 03:28:51;;;;;;;8.30;2.67;;;;;;;;;;4996418;28;20259;-74
2022/07/15 03:31:19;;;;;;;5.67;2.63;;;;;;;;;;5000581;28;20209;-74
2022/07/15 03:33:48;;;;;;;6.43;2.67;;;;;;;;;;4995592;28;20241;-74
2022/07/15 03:36:21;;;;;;;8.77;2.67;;;;;;;;;;4995566;28;20595;-74
2022/07/15 03:38:51;;;;;;;8.97;2.93;;;;;;;;;;4995853;28;20216;-73
2022/07/15 03:41:20;;;;;;;9.47;3.10;;;;;;;;;;4996103;28;20617;-74
2022/07/15 03:43:49;;;;;;;6.33;2.63;;;;;;;;;;5000344;28;20550;-74
2022/07/15 03:46:18;;;;;;;5.40;2.90;;;;;;;;;;4994039;28;20244;-74
2022/07/15 03:48:46;;;;;;;5.47;3.20;;;;;;;;;;4995179;28;20251;-74
2022/07/15 03:51:15;;;;;;;7.60;3.30;;;;;;;;;;4997715;28;20255;-73
2022/07/15 03:53:44;;;;;;;6.83;2.90;;;;;;;;;;5015642;28;20665;-74
2022/07/15 03:56:14;;;;;;;9.23;3.37;;;;;;;;;;5014958;28;20247;-74
2022/07/15 03:58:44;;;;;;;5.43;3.23;;;;;;;;;;4999908;28;20201;-74
2022/07/15 04:01:12;;;;;;;7.67;3.37;;;;;;;;;;4996300;28;20240;-73
2022/07/15 04:03:41;;;;;;;6.10;2.93;;;;;;;;;;5015320;28;20200;-73
2022/07/15 04:06:10;;;;;;;10.07;3.40;;;;;;;;;;4996967;28;20232;-74
2022/07/15 04:08:38;;;;;;;7.63;3.40;;;;;;;;;;4992456;28;20209;-74
2022/07/15 04:11:07;;;;;;;5.00;3.13;;;;;;;;;;4994283;28;20217;-74
2022/07/15 04:13:36;;;;;;;6.83;3.10;;;;;;;;;;5005830;28;20255;-73
2022/07/15 04:16:05;;;;;;;7.47;3.17;;;;;;;;;;5014719;28;20690;-74
2022/07/15 04:18:34;;;;;;;8.60;3.60;;;;;;;;;;5015247;28;20274;-74
2022/07/15 04:21:02;;;;;;;11.00;3.57;;;;;;;;;;5014491;28;20250;-74
2022/07/15 04:23:31;;;;;;;9.90;3.60;;;;;;;;;;5014737;28;20217;-74
2022/07/15 04:25:59;;;;;;;8.03;3.50;;;;;;;;;;4997090;28;20225;-74
2022/07/15 04:28:28;;;;;;;5.70;3.13;;;;;;;;;;4994815;28;20263;-74
2022/07/15 04:30:57;;;;;;;7.20;3.20;;;;;;;;;;4994785;28;20205;-74
2022/07/15 04:33:26;;;;;;;8.93;3.50;;;;;;;;;;5009214;28;20209;-73
2022/07/15 04:35:55;;;;;;;9.23;3.57;;;;;;;;;;4997965;28;20224;-74
2022/07/15 04:38:23;;;;;;;6.97;3.00;;;;;;;;;;4995053;28;20646;-74
2022/07/15 04:40:52;;;;;;;8.87;3.10;;;;;;;;;;4997592;28;20212;-74
2022/07/15 04:43:20;;;;;;;6.70;3.30;;;;;;;;;;5014601;28;20212;-74
2022/07/15 04:45:50;;;;;;;7.20;2.90;;;;;;;;;;4994792;28;20228;-74
2022/07/15 04:51:13;;;;;;;8.30;3.10;;;;;;;;;;4994522;28;20658;-74
2022/07/15 04:53:42;;;;;;;7.73;3.00;;;;;;;;;;4996874;28;20211;-74
2022/07/15 04:56:11;;;;;;;6.50;2.97;;;;;;;;;;4995792;28;20236;-73
2022/07/15 04:58:39;;;;;;;9.87;3.20;;;;;;;;;;4994736;28;20209;-74
2022/07/15 05:01:08;;;;;;;9.07;3.23;;;;;;;;;;4993739;28;20263;-74
2022/07/15 05:03:38;;;;;;;11.03;3.00;;;;;;;;;;5012330;28;20737;-75
2022/07/15 05:06:06;;;;;;;7.03;3.00;;;;;;;;;;4995711;28;20229;-74
2022/07/15 05:08:35;;;;;;;7.07;3.10;;;;;;;;;;4990531;28;20256;-74
2022/07/15 05:11:03;;;;;;;8.43;3.10;;;;;;;;;;4985479;28;20242;-74
2022/07/15 05:13:32;;;;;;;8.47;2.83;;;;;;;;;;4986502;28;20252;-74
2022/07/15 05:16:00;;;;;;;8.27;3.10;;;;;;;;;;4999078;28;20220;-74
2022/07/15 05:18:29;;;;;;;9.13;2.90;;;;;;;;;;4994515;28;20686;-74
2022/07/15 05:20:59;;;;;;;8.67;3.00;;;;;;;;;;4997117;28;20649;-74
2022/07/15 05:23:27;;;;;;;10.67;2.80;;;;;;;;;;4993430;28;20197;-74
2022/07/15 05:25:56;;;;;;;8.30;2.80;;;;;;;;;;5004135;28;20220;-74
2022/07/15 05:28:24;;;;;;;8.90;2.60;;;;;;;;;;5013728;28;20331;-74
2022/07/15 05:30:53;;;;;;;10.80;3.20;;;;;;;;;;5003780;28;20650;-74
2022/07/15 05:33:22;;;;;;;5.37;2.50;;;;;;;;;;5013775;28;20212;-74
2022/07/15 05:35:50;;;;;;;9.73;3.03;;;;;;;;;;4996791;28;20279;-74
2022/07/15 05:38:23;;;;;;;8.00;2.53;;;;;;;;;;4980259;28;20213;-74
2022/07/15 05:40:53;;;;;;;6.83;2.60;;;;;;;;;;4989923;28;20609;-73
2022/07/15 05:43:21;;;;;;;6.17;2.47;;;;;;;;;;4993912;28;20212;-74
2022/07/15 05:45:50;;;;;;;11.53;2.60;;;;;;;;;;4996914;28;20224;-74
2022/07/15 05:48:19;;;;;;;9.57;2.70;;;;;;;;;;4994145;28;20205;-74
2022/07/15 05:50:47;;;;;;;10.63;2.83;;;;;;;;;;5007735;28;20736;-75
2022/07/15 05:53:16;;;;;;;23.10;3.90;;;;;;;;;;5000115;28;20207;-74
2022/07/15 05:55:46;;;;;;;11.43;2.97;;;;;;;;;;5005828;28;20220;-74
2022/07/15 05:58:14;;;;;;;9.10;3.00;;;;;;;;;;5013100;28;20205;-73
2022/07/15 06:00:42;;;;;;;7.27;2.40;;;;;;;;;;4999224;28;20205;-74
2022/07/15 06:03:11;;;;;;;5.87;2.27;;;;;;;;;;4995596;28;20268;-74
2022/07/15 06:05:42;;;;;;;5.43;2.30;;;;;;;;;;4992662;28;20601;-74
2022/07/15 06:08:11;;;;;;;7.33;2.47;;;;;;;;;;4993432;28;20215;-74
2022/07/15 06:10:39;;;;;;;8.60;2.27;;;;;;;;;;4993623;28;20202;-74
2022/07/15 06:13:09;;;;;;;5.10;1.83;;;;;;;;;;4994181;28;20197;-74
2022/07/15 06:15:38;;;;;;;5.60;2.43;;;;;;;;;;4996627;28;20749;-76
2022/07/15 06:18:06;;;;;;;11.13;2.40;;;;;;;;;;4994280;28;20201;-77
2022/07/15 06:20:35;;;;;;;19.07;2.90;;;;;;;;;;4993903;28;20201;-76
2022/07/15 06:23:03;;;;;;;8.53;2.17;;;;;;;;;;4994052;28;20209;-76
2022/07/15 06:25:32;;;;;;;6.87;2.07;;;;;;;;;;4993910;28;20315;-76
2022/07/15 06:28:01;;;;;;;4.83;1.87;;;;;;;;;;4993255;28;20232;-76
2022/07/15 06:30:37;;;;;;;6.93;2.20;;;;;;;;;;5002398;28;20211;-76
2022/07/15 06:33:24;;;;;;;6.67;2.00;;;;;;;;;;4995494;28;20216;-74
2022/07/15 06:35:52;;;;;;;8.03;2.00;;;;;;;;;;4994855;28;20233;-74
2022/07/15 06:38:21;;;;;;;5.83;2.10;;;;;;;;;;4997172;28;20201;-74
2022/07/15 06:40:49;;;;;;;5.77;1.60;;;;;;;;;;4996823;28;20285;-74
2022/07/15 06:43:18;;;;;;;4.90;1.50;;;;;;;;;;4996217;28;20259;-75
2022/07/15 06:45:48;;;;;;;4.57;1.60;;;;;;;;;;5005509;28;20720;-74
2022/07/15 06:48:16;;;;;;;5.87;1.53;;;;;;;;;;5009179;28;20220;-73
2022/07/15 06:50:45;;;;;;;6.17;2.03;;;;;;;;;;5001026;28;20642;-73
2022/07/15 06:53:14;;;;;;;7.37;1.90;;;;;;;;;;5016213;28;20205;-74
2022/07/15 06:55:42;;;;;;;6.90;1.60;;;;;;;;;;5001267;28;20221;-73
2022/07/15 06:58:11;;;;;;;7.10;1.70;;;;;;;;;;5000256;28;20217;-74
2022/07/15 07:00:39;;;;;;;4.80;1.60;;;;;;;;;;4995690;28;20212;-73
2022/07/15 07:03:09;;;;;;;2.67;1.07;;;;;;;;;;5006999;28;20689;-74
2022/07/15 07:05:38;;;;;;;2.90;1.20;;;;;;;;;;5004552;28;21775;-74
2022/07/15 07:08:06;;;;;;;4.33;1.30;;;;;;;;;;5015524;28;20241;-73
2022/07/15 07:10:35;;;;;;;3.13;1.20;;;;;;;;;;4999300;28;20217;-74
2022/07/15 07:13:03;;;;;;;4.73;1.27;;;;;;;;;;4996007;28;20663;-73
2022/07/15 07:15:32;;;;;;;6.07;1.40;;;;;;;;;;4995999;28;20221;-75
2022/07/15 07:18:00;;;;;;;4.07;1.07;;;;;;;;;;4995899;28;20213;-74
2022/07/15 07:20:30;;;;;;;3.00;1.10;;;;;;;;;;4996615;28;20617;-74
2022/07/15 07:22:59;;;;;;;2.63;1.30;;;;;;;;;;4996123;28;20205;-74
2022/07/15 07:25:27;;;;;;;3.50;1.20;;;;;;;;;;4995982;28;20237;-74
2022/07/15 07:27:56;;;;;;;5.35;1.10;;;;;;;;;;4995906;28;20236;-74
2022/07/15 07:30:25;;;;;;;4.80;1.10;;;;;;;;;;4995815;28;20209;-74
2022/07/15 07:32:53;;;;;;;3.30;1.15;;;;;;;;;;4976739;28;20209;-73
2022/07/15 07:35:23;;;;;;;5.33;1.20;;;;;;;;;;4986952;28;20212;-74
2022/07/15 07:37:53;;;;;;;1.77;0.90;;;;;;;;;;4996053;28;20208;-74
2022/07/15 07:40:21;;;;;;;3.13;1.00;;;;;;;;;;4995291;28;20209;-74
2022/07/15 07:42:50;;;;;;;4.95;1.00;;;;;;;;;;4995682;28;20209;-74
2022/07/15 07:45:18;;;;;;;3.72;0.90;;;;;;;;;;4995665;28;20634;-74
2022/07/15 07:47:47;;;;;;;4.43;0.90;;;;;;;;;;4975862;28;20226;-73
2022/07/15 07:50:15;;;;;;;3.00;1.23;;;;;;;;;;4986405;28;20650;-74
2022/07/15 07:52:44;;;;;;;2.42;0.90;;;;;;;;;;5011420;28;20201;-74
2022/07/15 07:55:14;;;;;;;3.17;0.88;;;;;;;;;;4994662;28;20213;-74
2022/07/15 07:57:49;;;;;;;1.77;0.80;;;;;;;;;;5009590;28;20638;-74
2022/07/15 08:00:18;;;;;;;3.75;0.88;;;;;;;;;;4999001;28;20216;-73
2022/07/15 08:02:47;;;;;;;2.65;0.93;;;;;;;;;;4999672;28;20209;-74
2022/07/15 08:05:17;;;;;;;3.28;0.85;;;;;;;;;;4993201;28;20205;-74
2022/07/15 08:07:52;;;;;;;2.53;0.90;;;;;;;;;;4995622;28;20225;-74
2022/07/15 08:10:23;;;;;;;3.78;0.80;;;;;;;;;;4994759;28;20209;-74
2022/07/15 08:12:51;;;;;;;3.22;1.00;;;;;;;;;;4994826;28;20211;-73
2022/07/15 08:15:20;;;;;;;4.40;0.95;;;;;;;;;;4994626;28;20209;-74
2022/07/15 08:17:48;;;;;;;2.47;1.00;;;;;;;;;;4995191;28;20200;-73
2022/07/15 08:20:16;;;;;;;2.47;0.85;;;;;;;;;;4995265;28;20201;-74
2022/07/15 08:22:45;;;;;;;3.30;1.10;;;;;;;;;;4994639;28;20205;-73
2022/07/15 08:25:14;;;;;;;3.53;1.00;;;;;;;;;;4994476;28;20213;-73
2022/07/15 08:27:43;;;;;;;3.22;1.00;;;;;;;;;;4995591;28;20555;-74
2022/07/15 08:30:14;;;;;;;4.13;1.05;;;;;;;;;;4986620;28;20721;-73
2022/07/15 08:32:43;;;;;;;2.78;0.73;;;;;;;;;;5014445;28;20205;-74
2022/07/15 08:35:12;;;;;;;2.75;1.10;;;;;;;;;;5004857;28;20259;-74
2022/07/15 08:37:46;;;;;;;4.43;1.17;;;;;;;;;;4994510;28;20199;-74
2022/07/15 08:40:28;;;;;;;3.03;0.80;;;;;;;;;;4994646;28;20570;-73
2022/07/15 08:42:58;;;;;;;3.20;0.80;;;;;;;;;;4994922;28;20572;-74
2022/07/15 08:45:28;;;;;;;4.47;0.80;;;;;;;;;;4995759;28;20228;-74
2022/07/15 08:48:02;;;;;;;2.63;1.20;;;;;;;;;;4987166;28;20372;-73
2022/07/15 08:50:30;;;;;;;3.17;1.15;;;;;;;;;;4986810;28;20209;-74
2022/07/15 08:52:59;;;;;;;3.60;1.20;;;;;;;;;;4995541;28;20205;-74
2022/07/15 08:55:27;;;;;;;3.45;1.10;;;;;;;;;;5001134;28;20225;-73
2022/07/15 08:57:57;;;;;;;3.72;1.05;;;;;;;;;;4998987;28;20217;-73
2022/07/15 09:00:29;;;;;;;2.53;1.10;;;;;;;;;;4994353;28;20231;-74
2022/07/15 09:02:59;;;;;;;4.43;1.30;;;;;;;;;;4995751;28;20264;-74
2022/07/15 09:05:29;;;;;;;3.72;0.93;;;;;;;;;;5001950;28;20311;-74
2022/07/15 09:08:00;;;;;;;3.22;1.00;;;;;;;;;;4994341;28;20264;-73
2022/07/15 09:10:43;;;;;;;3.80;1.02;;;;;;;;;;4994247;28;20271;-73
2022/07/15 09:13:12;;;;;;;2.95;1.00;;;;;;;;;;5007734;28;20600;-74
2022/07/15 09:15:43;;;;;;;2.40;1.15;;;;;;;;;;4988102;28;20236;-74
2022/07/15 09:18:13;;;;;;;4.75;1.05;;;;;;;;;;4994353;28;20252;-74
2022/07/15 09:20:43;;;;;;;4.20;1.00;;;;;;;;;;4992603;28;20275;-73
2022/07/15 09:23:12;;;;;;;1.70;0.90;;;;;;;;;;4993497;28;20212;-73
2022/07/15 09:25:41;;;;;;;2.08;0.93;;;;;;;;;;4993749;28;20229;-74
2022/07/15 09:28:09;;;;;;;1.02;0.60;;;;;;;;;;5005519;28;20658;-73
2022/07/15 09:33:40;;;;;;;1.88;0.98;;;;;;;;;;4991189;28;20208;-73
2022/07/15 09:36:11;;;;;;;2.30;0.70;;;;;;;;;;4993519;28;20224;-73
2022/07/15 09:38:44;;;;;;;2.95;1.10;;;;;;;;;;5002224;28;20217;-73
2022/07/15 09:41:26;;;;;;;3.47;1.05;;;;;;;;;;5001159;28;20208;-73
2022/07/15 09:43:56;;;;;;;1.17;0.88;;;;;;;;;;4993125;28;20641;-74
2022/07/15 09:46:25;;;;;;;1.83;0.95;;;;;;;;;;4998502;28;20712;-73
2022/07/15 09:48:55;;;;;;;7.03;1.40;;;;;;;;;;5000242;28;20234;-74
2022/07/15 09:51:24;;;;;;;2.55;0.90;;;;;;;;;;4986234;28;20216;-73
2022/07/15 09:53:54;;;;;;;5.35;1.00;;;;;;;;;;4994765;28;20212;-74
2022/07/15 09:56:29;;;;;;;1.88;0.80;;;;;;;;;;4990515;28;20216;-73
2022/07/15 09:58:58;;;;;;;5.78;1.00;;;;;;;;;;5003302;28;20201;-74
2022/07/15 10:01:28;;;;;;;2.60;0.88;;;;;;;;;;4998700;28;20218;-74
2022/07/15 10:03:58;;;;;;;3.42;0.80;;;;;;;;;;4993672;28;20216;-74
2022/07/15 10:06:27;;;;;;;2.72;0.80;;;;;;;;;;4997237;28;20236;-74
2022/07/15 10:08:56;;;;;;;4.30;0.93;;;;;;;;;;4995131;28;20225;-74
2022/07/15 10:11:24;;;;;;;8.20;1.25;;;;;;;;;;5001223;28;20201;-73
2022/07/15 10:14:17;;;;;;;4.43;0.90;;;;;;;;;;5000028;28;20210;-74
2022/07/15 10:17:07;;;;;;;2.50;0.90;;;;;;;;;;4991732;28;20232;-73
2022/07/15 10:19:47;;;;;;;3.35;1.00;;;;;;;;;;4996748;28;20260;-74
2022/07/15 10:22:19;;;;;;;3.03;0.90;;;;;;;;;;5002130;28;20201;-75
2022/07/15 10:24:54;;;;;;;1.77;0.95;;;;;;;;;;5000385;28;20201;-75
2022/07/15 10:27:32;;;;;;;2.40;0.80;;;;;;;;;;5008987;28;20228;-74
2022/07/15 10:30:05;;;;;;;1.50;0.90;;;;;;;;;;5006073;28;20295;-75
2022/07/15 10:32:49;;;;;;;3.33;0.90;;;;;;;;;;5002670;28;20209;-75
2022/07/15 10:35:32;;;;;;;0.90;0.68;;;;;;;;;;4987285;28;20724;-75
2022/07/15 10:38:20;;;;;;;1.35;0.88;;;;;;;;;;4997161;28;20592;-75
2022/07/15 10:40:58;;;;;;;1.80;0.90;;;;;;;;;;4997083;28;20200;-74
2022/07/15 10:43:38;;;;;;;2.85;1.05;;;;;;;;;;4998040;28;20259;-75
2022/07/15 10:46:26;;;;;;;3.08;0.70;;;;;;;;;;4996594;28;20693;-75
2022/07/15 10:49:09;;;;;;;2.45;0.60;;;;;;;;;;4990406;28;20220;-75
2022/07/15 10:51:46;;;;;;;2.92;0.82;;;;;;;;;;4996713;28;20542;-75
2022/07/15 10:54:32;;;;;;;2.17;1.00;;;;;;;;;;5002340;28;20204;-75
2022/07/15 10:57:02;;;;;;;1.58;0.80;;;;;;;;;;4998402;28;20224;-75
2022/07/15 10:59:36;;;;;;;2.30;0.70;;;;;;;;;;4995724;28;20201;-75
2022/07/15 11:02:15;;;;;;;2.33;0.70;;;;;;;;;;4998602;28;20213;-75
2022/07/15 11:04:44;;;;;;;3.83;0.88;;;;;;;;;;5009238;28;20291;-75
2022/07/15 11:07:25;;;;;;;2.42;0.80;;;;;;;;;;4995202;28;20231;-75
2022/07/15 11:09:54;;;;;;;2.47;0.80;;;;;;;;;;4995434;28;20275;-75
2022/07/15 11:12:26;;;;;;;1.02;0.73;;;;;;;;;;4996361;28;20205;-74
2022/07/15 11:14:55;;;;;;;3.05;0.85;;;;;;;;;;4996124;28;20201;-75
2022/07/15 11:17:25;;;;;;;4.95;0.70;;;;;;;;;;4996454;28;20606;-74
2022/07/15 11:19:55;;;;;;;3.22;0.95;;;;;;;;;;4996620;28;20201;-75
2022/07/15 11:22:25;;;;;;;2.05;0.85;;;;;;;;;;4995118;28;20210;-74
2022/07/15 11:24:54;;;;;;;3.28;1.20;;;;;;;;;;4994752;28;20212;-75
2022/07/15 11:27:23;;;;;;;1.35;0.82;;;;;;;;;;4996473;28;20623;-75
2022/07/15 11:29:54;;;;;;;2.70;0.90;;;;;;;;;;4995725;28;20217;-74
2022/07/15 11:32:23;;;;;;;3.53;0.90;;;;;;;;;;4994428;28;20207;-74
2022/07/15 11:34:52;;;;;;;4.22;0.98;;;;;;;;;;4994874;28;20262;-75
2022/07/15 11:37:24;;;;;;;1.92;1.05;;;;;;;;;;4995652;28;20737;-75
2022/07/15 11:40:06;;;;;;;3.58;1.17;;;;;;;;;;4995397;28;20217;-74
2022/07/15 11:45:34;;;;;;;2.50;1.00;;;;;;;;;;4995180;28;20212;-75
2022/07/15 11:48:02;;;;;;;3.20;0.90;;;;;;;;;;4996611;28;20205;-75
2022/07/15 11:50:31;;;;;;;1.77;1.02;;;;;;;;;;5002218;28;20272;-74
2022/07/15 11:52:59;;;;;;;3.70;0.90;;;;;;;;;;4994983;28;20209;-74
2022/07/15 11:55:28;;;;;;;1.40;0.90;;;;;;;;;;4994628;28;20235;-74
2022/07/15 11:57:57;;;;;;;3.40;0.80;;;;;;;;;;4995269;28;20297;-75
2022/07/15 12:00:31;;;;;;;1.83;0.82;;;;;;;;;;4994943;28;20551;-75
2022/07/15 12:03:10;;;;;;;3.53;1.00;;;;;;;;;;4995666;28;20604;-74
2022/07/15 12:05:39;;;;;;;3.60;0.90;;;;;;;;;;4997194;28;20729;-75
2022/07/15 12:08:07;;;;;;;1.02;0.80;;;;;;;;;;4998578;28;20697;-75
2022/07/15 12:10:37;;;;;;;4.07;0.90;;;;;;;;;;4994779;28;20244;-75
2022/07/15 12:13:06;;;;;;;3.22;1.10;;;;;;;;;;4995606;28;20662;-75
2022/07/15 12:15:35;;;;;;;6.20;1.05;;;;;;;;;;4994660;28;20221;-75
2022/07/15 12:18:04;;;;;;;4.97;1.27;;;;;;;;;;4989500;28;20209;-75
2022/07/15 12:20:34;;;;;;;2.05;0.80;;;;;;;;;;4987861;28;20202;-75
2022/07/15 12:23:05;;;;;;;3.13;0.90;;;;;;;;;;5000879;28;20259;-75
2022/07/15 12:25:34;;;;;;;1.58;1.00;;;;;;;;;;5000989;28;20229;-75
2022/07/15 12:28:02;;;;;;;2.97;0.73;;;;;;;;;;5001226;28;20207;-74
2022/07/15 12:30:35;;;;;;;2.25;0.90;;;;;;;;;;5001644;28;20686;-74
2022/07/15 12:33:16;;;;;;;2.65;0.88;;;;;;;;;;5000158;28;20205;-74
2022/07/15 12:35:46;;;;;;;5.78;1.02;;;;;;;;;;4999092;28;20640;-74
2022/07/15 12:38:28;;;;;;;3.83;0.93;;;;;;;;;;5002799;28;20201;-74
2022/07/15 12:41:06;;;;;;;2.10;0.80;;;;;;;;;;4998582;28;20201;-74
2022/07/15 12:43:50;;;;;;;4.70;1.00;;;;;;;;;;4993626;28;20200;-74
2022/07/15 12:46:19;;;;;;;3.92;0.90;;;;;;;;;;4996075;28;20276;-75
2022/07/15 12:48:49;;;;;;;1.50;0.70;;;;;;;;;;5008142;28;20213;-77
2022/07/15 12:51:26;;;;;;;1.40;0.93;;;;;;;;;;4995668;28;20216;-76
2022/07/15 12:54:04;;;;;;;4.35;1.10;;;;;;;;;;4996940;28;20209;-75
2022/07/15 12:56:33;;;;;;;5.23;1.17;;;;;;;;;;4994812;28;20753;-76
2022/07/15 12:59:01;;;;;;;3.10;0.88;;;;;;;;;;4996686;28;20289;-76
2022/07/15 13:01:30;;;;;;;2.85;1.08;;;;;;;;;;4996334;28;20268;-76
2022/07/15 13:03:59;;;;;;;2.87;1.17;;;;;;;;;;4649590;28;10000043;-76
2022/07/15 13:06:28;;;;;;;3.40;1.17;;;;;;;;;;4993296;28;20229;-76
2022/07/15 13:08:58;;;;;;;1.33;0.97;;;;;;;;;;4993535;28;20216;-75
2022/07/15 13:11:29;;;;;;;2.87;1.07;;;;;;;;;;4994654;28;20307;-75
2022/07/15 13:13:58;;;;;;;1.47;1.00;;;;;;;;;;4992380;28;20209;-75
2022/07/15 13:16:26;;;;;;;2.47;0.90;;;;;;;;;;4992469;28;20233;-74
2022/07/15 13:18:55;;;;;;;2.85;1.00;;;;;;;;;;4993989;28;21037;-75
2022/07/15 13:21:23;;;;;;;3.00;1.00;;;;;;;;;;4992065;28;20204;-76
2022/07/15 13:23:53;;;;;;;2.55;0.82;;;;;;;;;;4992959;28;20201;-75
2022/07/15 13:26:22;;;;;;;2.60;1.00;;;;;;;;;;4989044;28;20308;-75
2022/07/15 13:28:50;;;;;;;1.75;1.00;;;;;;;;;;4994144;28;20205;-74
2022/07/15 13:31:19;;;;;;;2.60;0.82;;;;;;;;;;4992720;28;20224;-75
2022/07/15 13:33:48;;;;;;;2.00;1.10;;;;;;;;;;4973473;28;20671;-74
2022/07/15 13:36:22;;;;;;;2.00;0.80;;;;;;;;;;4993087;28;20224;-75
2022/07/15 13:38:51;;;;;;;2.97;1.00;;;;;;;;;;4992387;28;20548;-75
2022/07/15 13:41:21;;;;;;;2.17;0.90;;;;;;;;;;4991644;28;20545;-74
2022/07/15 13:43:50;;;;;;;4.55;1.20;;;;;;;;;;4992950;28;20201;-75
2022/07/15 13:46:19;;;;;;;4.18;0.98;;;;;;;;;;4995781;28;20287;-74
2022/07/15 13:48:48;;;;;;;2.47;0.80;;;;;;;;;;4996718;28;20211;-75
2022/07/15 13:51:25;;;;;;;1.17;0.65;;;;;;;;;;4996056;28;20236;-75
2022/07/15 13:53:54;;;;;;;2.13;0.80;;;;;;;;;;4996256;28;20207;-75
2022/07/15 13:56:25;;;;;;;1.42;0.60;;;;;;;;;;4996864;28;20316;-75
2022/07/15 13:58:57;;;;;;;1.75;0.70;;;;;;;;;;4996071;28;20197;-75
2022/07/15 14:01:27;;;;;;;2.13;0.77;;;;;;;;;;4995888;28;20585;-75
2022/07/15 14:03:56;;;;;;;1.25;0.70;;;;;;;;;;4998489;28;20205;-75
2022/07/15 14:06:24;;;;;;;1.38;0.68;;;;;;;;;;4995282;28;20224;-74
2022/07/15 14:08:53;;;;;;;1.27;0.70;;;;;;;;;;4995514;28;20662;-74
2022/07/15 14:11:22;;;;;;;2.58;0.70;;;;;;;;;;4995334;28;20247;-74
2022/07/15 14:13:51;;;;;;;0.88;0.50;;;;;;;;;;5005516;28;20205;-75
2022/07/15 14:16:20;;;;;;;1.70;0.55;;;;;;;;;;4997191;28;20225;-74
2022/07/15 14:18:50;;;;;;;0.65;0.40;;;;;;;;;;5009178;28;20713;-74
2022/07/15 14:21:19;;;;;;;0.90;0.50;;;;;;;;;;4997762;28;20212;-74
2022/07/15 14:23:48;;;;;;;1.27;0.60;;;;;;;;;;5007851;28;20254;-73
2022/07/15 14:26:17;;;;;;;1.02;0.70;;;;;;;;;;4996895;28;20720;-74
2022/07/15 14:28:47;;;;;;;1.00;0.40;;;;;;;;;;5009249;28;20554;-74
2022/07/15 14:31:17;;;;;;;1.88;0.35;;;;;;;;;;4997901;28;20217;-74
2022/07/15 14:33:46;;;;;;;2.08;0.70;;;;;;;;;;5009160;28;20287;-74
2022/07/15 14:36:15;;;;;;;1.13;0.50;;;;;;;;;;4996902;28;20221;-74
2022/07/15 14:38:44;;;;;;;1.20;0.45;;;;;;;;;;4997027;28;20209;-73
2022/07/15 14:41:12;;;;;;;2.67;0.52;;;;;;;;;;4996473;28;20197;-74
2022/07/15 14:43:42;;;;;;;2.25;0.73;;;;;;;;;;4995420;28;20205;-74
2022/07/15 14:46:14;;;;;;;0.50;0.50;;;;;;;;;;4996269;28;20602;-73
2022/07/15 14:48:44;;;;;;;1.60;0.60;;;;;;;;;;4996404;28;20220;-74
2022/07/15 14:51:13;;;;;;;1.83;0.60;;;;;;;;;;4996209;28;20712;-74
2022/07/15 14:53:42;;;;;;;1.58;0.70;;;;;;;;;;4995978;28;20208;-74
2022/07/15 14:56:11;;;;;;;0.98;0.57;;;;;;;;;;4995257;28;20707;-74
2022/07/15 14:58:40;;;;;;;1.02;0.60;;;;;;;;;;4996865;28;20651;-74
2022/07/15 15:01:08;;;;;;;2.38;0.80;;;;;;;;;;4995207;28;20252;-74
2022/07/15 15:03:37;;;;;;;1.70;0.60;;;;;;;;;;4997164;28;20209;-74
2022/07/15 15:06:08;;;;;;;1.30;0.60;;;;;;;;;;5001517;28;20221;-75
2022/07/15 15:08:36;;;;;;;2.63;0.70;;;;;;;;;;4996586;28;20700;-74
2022/07/15 15:11:05;;;;;;;2.55;0.63;;;;;;;;;;5006383;28;20227;-74
2022/07/15 15:13:33;;;;;;;1.75;0.55;;;;;;;;;;4996719;28;20205;-74